CYNR

SPECI CYNR 312035Z AUTO 04005KT 2SM RA BKN025 OVC035 03/02 A2957 RMK AO2 PRESFR SLP029
SPECI
LOCATION
CYNR
DATE - TIME
312035Z
WIND
040 TRUE @ 5 KNOTS
VISIBILITY
2SM
RUNWAY VISUAL RANGE
NOT REPORTED
WEATHER
RAIN, NOT FREEZING, MODERATE
CLOUDINESS
BKN025 OVC035
TEMP / DEWPOINT
3 ºC / 2 ºC
ALTIMETER
29.57 in. Hg
RECENT WEATHER
NOT REPORTED
WIND SHEAR
NOT REPORTED
REMARKS
RMK AO2 PRESFR SLP029
SEA LEVEL PRESSURE: hPa

CYNR

SPECI CYNR 312034Z AUTO 05005KT 2SM +RA BKN025 OVC035 03/02 A2957 RMK AO2 PRESFR SLP029
SPECI
LOCATION
CYNR
DATE - TIME
312034Z
WIND
050 TRUE @ 5 KNOTS
VISIBILITY
2SM
RUNWAY VISUAL RANGE
NOT REPORTED
WEATHER
RAIN, NOT FREEZING, HEAVY
CLOUDINESS
BKN025 OVC035
TEMP / DEWPOINT
3 ºC / 2 ºC
ALTIMETER
29.57 in. Hg
RECENT WEATHER
NOT REPORTED
WIND SHEAR
NOT REPORTED
REMARKS
RMK AO2 PRESFR SLP029
SEA LEVEL PRESSURE: hPa

CYNR

SPECI CYNR 312032Z AUTO 04005KT 2SM RA BKN025 OVC036 03/02 A2957 RMK AO2 PRESFR SLP029
SPECI
LOCATION
CYNR
DATE - TIME
312032Z
WIND
040 TRUE @ 5 KNOTS
VISIBILITY
2SM
RUNWAY VISUAL RANGE
NOT REPORTED
WEATHER
RAIN, NOT FREEZING, MODERATE
CLOUDINESS
BKN025 OVC036
TEMP / DEWPOINT
3 ºC / 2 ºC
ALTIMETER
29.57 in. Hg
RECENT WEATHER
NOT REPORTED
WIND SHEAR
NOT REPORTED
REMARKS
RMK AO2 PRESFR SLP029
SEA LEVEL PRESSURE: hPa

Your time UTC time
 
 
Weather data provided by AXYS Technologies Inc., www.axystechnologies.com
 
Station History